WetterOnline ( http://www.wetteronline.de )

Wetter aktuell Schkopau

Aktuelles Wetter: Leipzig/Halle (136m)

6-stündlich | Neueste Meldungen
Ortszeit Temperatur Wetter
Fr, 22.02. 13:00 3.5° C bedeckt
Fr, 22.02. 7:00 7.5° C bedeckt
Fr, 22.02. 1:00 8.8° C Sprühregen
Do, 21.02. 19:00 9.3° C bedeckt
Do, 21.02. 13:00 10.9° C leicht bewölkt
Do, 21.02. 7:00 5.1° C wolkig
Do, 21.02. 1:00 4.8° C leicht bewölkt
Mi, 20.02. 19:00 7.4° C bedeckt
Ortszeit Temperatur Wetter
Fr, 22.02. 17:50 1° C leicht bewölkt
Fr, 22.02. 17:30 1.0° C -
Fr, 22.02. 17:20 1.0° C leicht bewölkt
Fr, 22.02. 17:10 1.5° C bewölkt
Fr, 22.02. 17:00 1.9° C wolkig
Fr, 22.02. 16:50 1.9° C bewölkt
Fr, 22.02. 16:30 1.9° C bedeckt
Fr, 22.02. 16:00 2.0° C bedeckt
Fr, 22.02. 15:30 2.1° C bedeckt
Fr, 22.02. 15:00 2.5° C bedeckt
Fr, 22.02. 14:30 2.8° C bedeckt
Ortszeit Relative Feuchte Sichtweite
Fr, 22.02. 13:00 84% 40 km
Fr, 22.02. 7:00 96% 7 km
Fr, 22.02. 1:00 88% 10 km
Do, 21.02. 19:00 73% 20 km
Do, 21.02. 13:00 62% 23 km
Do, 21.02. 7:00 79% 18 km
Do, 21.02. 1:00 77% 30 km
Mi, 20.02. 19:00 66% 40 km
Ortszeit Relative Feuchte Sichtweite
Fr, 22.02. 17:50 80% >10 km
Fr, 22.02. 17:30 80% -
Fr, 22.02. 17:20 80% -
Fr, 22.02. 17:10 76% -
Fr, 22.02. 17:00 79% 40 km
Fr, 22.02. 16:50 79% -
Fr, 22.02. 16:30 83% -
Fr, 22.02. 16:00 83% 40 km
Fr, 22.02. 15:30 84% -
Fr, 22.02. 15:00 83% 40 km
Fr, 22.02. 14:30 84% -
Ortszeit Niederschlagsmenge Niederschlagsart
Fr, 22.02. 13:00 0.1 l/m2 in 6 Std. Sprühregen
Fr, 22.02. 7:00 0.5 l/m2 in 12 Std. Regen
Fr, 22.02. 1:00 0.2 l/m2 in 6 Std. Regen
Do, 21.02. 19:00 0.2 l/m2 in 12 Std. Regen
Do, 21.02. 13:00 0.0 l/m2 in 6 Std. -
Do, 21.02. 7:00 0.0 l/m2 in 12 Std. -
Do, 21.02. 1:00 0.0 l/m2 in 6 Std. -
Mi, 20.02. 19:00 0.0 l/m2 in 12 Std. -
Ortszeit Niederschlagsmenge Niederschlagsart
Fr, 22.02. 17:50 keine Meldung -
Fr, 22.02. 17:30 0.0 l/m2 in 1 Std. -
Fr, 22.02. 17:20 keine Meldung -
Fr, 22.02. 17:10 keine Meldung -
Fr, 22.02. 17:00 0.0 l/m2 in 1 Std. -
Fr, 22.02. 16:50 keine Meldung -
Fr, 22.02. 16:30 0.0 l/m2 in 1 Std. -
Fr, 22.02. 16:00 0.0 l/m2 in 1 Std. -
Fr, 22.02. 15:30 0.0 l/m2 in 1 Std. -
Fr, 22.02. 15:00 0.0 l/m2 in 1 Std. -
Fr, 22.02. 14:30 0.0 l/m2 in 1 Std. -
Ortszeit Stärke Spitze Richtung
km/h Bft. km/h Grad Sektor
Fr, 22.02. 13:00 22 4 40 70° O
Fr, 22.02. 7:00 18 3 40 350° N
Fr, 22.02. 1:00 24 4 48 300° NW
Do, 21.02. 19:00 18 3 43 250° W
Do, 21.02. 13:00 28 4 37 250° W
Do, 21.02. 7:00 18 3 25 230° SW
Do, 21.02. 1:00 14 3 18 220° SW
Mi, 20.02. 19:00 14 3 43 230° SW
Ortszeit Stärke Spitze Richtung
km/h Bft. km/h Grad Sektor
Fr, 22.02. 17:50 6 1 - 80° O
Fr, 22.02. 17:30 9 2 19 100° O
Fr, 22.02. 17:20 9 2 - 100° O
Fr, 22.02. 17:10 9 2 - 80° O
Fr, 22.02. 17:00 13 3 24 90° O
Fr, 22.02. 16:50 13 3 - 90° O
Fr, 22.02. 16:30 13 3 24 90° O
Fr, 22.02. 16:00 13 3 22 50° NO
Fr, 22.02. 15:30 17 3 22 30° NO
Fr, 22.02. 15:00 14 3 29 50° NO
Fr, 22.02. 14:30 18 3 29 60° NO
Ortszeit Untergrenze Bedeckung Gattung
total tief tief mittel hoch
Fr, 22.02. 13:00 360 m 8/8 7/8 Sc - -
Fr, 22.02. 7:00 120 m 8/8 7/8 St - -
Fr, 22.02. 1:00 300 m 8/8 8/8 Sc - -
Do, 21.02. 19:00 990 m 8/8 8/8 Sc - -
Do, 21.02. 13:00 3000 m 6/8 5/8 - Ac Ci
Do, 21.02. 7:00 1800 m 7/8 2/8 Sc As -
Do, 21.02. 1:00 3600 m 7/8 3/8 - As Ci
Mi, 20.02. 19:00 1500 m 8/8 2/8 Sc Ac -
Ortszeit Bedeckungsgrad in Achtel und Wolkenuntergrenze
Fr, 22.02. 17:50 1-2(540m)
Fr, 22.02. 17:30 -
Fr, 22.02. 17:20 3(540m) 5(9000m)
Fr, 22.02. 17:10 7(540m)
Fr, 22.02. 17:00 3(330m) 5(570m)
Fr, 22.02. 16:50 6(480m) 7(630m)
Fr, 22.02. 16:30 8(360m)
Fr, 22.02. 16:00 7(330m)
Fr, 22.02. 15:30 8(300m)
Fr, 22.02. 15:00 7(300m)
Fr, 22.02. 14:30 8(360m)
Ortszeit Luftdruck NN (hPa) Tendenz (hPa in 3 Std.)
Fr, 22.02. 13:00 1038 + 3,4
Fr, 22.02. 7:00 1030 + 2,4
Fr, 22.02. 1:00 1026 + 0,8
Do, 21.02. 19:00 1025 + 0,6
Do, 21.02. 13:00 1025 - 0,9
Do, 21.02. 7:00 1025 - 0,1
Do, 21.02. 1:00 1026 + 0,4
Mi, 20.02. 19:00 1024 + 1,2
Ortszeit Luftdruck NN (hPa) Tendenz (hPa in 3 Std.)
Fr, 22.02. 17:50 1040 keine Meldung
Fr, 22.02. 17:30 1042 + 1,9
Fr, 22.02. 17:20 1042 keine Meldung
Fr, 22.02. 17:10 1041 keine Meldung
Fr, 22.02. 17:00 1041 + 2,2
Fr, 22.02. 16:50 1041 keine Meldung
Fr, 22.02. 16:30 1041 + 2,3
Fr, 22.02. 16:00 1041 + 2,4
Fr, 22.02. 15:30 1040 + 2,8
Fr, 22.02. 15:00 1040 + 2,9
Fr, 22.02. 14:30 1039 + 2,7
Ortszeit Schneehöhe (cm)
Fr, 22.02. 13:00 0
Fr, 22.02. 7:00 0
Fr, 22.02. 1:00 0
Do, 21.02. 19:00 0
Do, 21.02. 13:00 0
Do, 21.02. 7:00 0
Do, 21.02. 1:00 0
Mi, 20.02. 19:00 0
Ortszeit Schneehöhe (cm)
Fr, 22.02. 17:50 -
Fr, 22.02. 17:30 -
Fr, 22.02. 17:20 -
Fr, 22.02. 17:10 -
Fr, 22.02. 17:00 -
Fr, 22.02. 16:50 -
Fr, 22.02. 16:30 -
Fr, 22.02. 16:00 -
Fr, 22.02. 15:30 -
Fr, 22.02. 15:00 -
Fr, 22.02. 14:30 -
Link zu dieser Seite / Seite empfehlen

Das Wetter in ...